Time;durP1;ratioP1;P1;durP2;ratioP2;P2;SDS_P1;SDS_P2;PMS_P1;PMS_P2;Temp;Humidity;BMP_temperature;BMP_pressure;BME280_temperature;BME280_humidity;BME280_pressure;Samples;Min_cycle;Max_cycle;Signal;HPM_P1;HPM_P2
2022/09/11 00:01:08;;;;;;;15.27;7.65;;;;;;;18.01;68.36;94910.72;5081500;28;20052;-91
2022/09/11 00:03:34;;;;;;;10.02;7.88;;;;;;;19.35;68.21;95117.50;5087577;28;20052;-91
2022/09/11 00:06:05;;;;;;;10.93;7.97;;;;;;;18.96;69.12;95095.34;5088464;28;20474;-91
2022/09/11 00:08:31;;;;;;;;;;;;;;;19.03;69.37;95117.13;5088301;28;20413;-91
2022/09/11 00:11:03;;;;;;;15.57;8.13;;;;;;;16.39;69.16;94680.03;5087674;28;20007;-91
2022/09/11 00:13:30;;;;;;;13.93;8.15;;;;;;;19.09;69.28;95099.66;5087643;28;20720;-91
2022/09/11 00:15:55;;;;;;;13.38;8.77;;;;;;;18.63;69.98;95071.09;5087807;28;20054;-91
2022/09/11 00:18:21;;;;;;;12.15;8.73;;;;;;;18.98;69.89;95122.69;5087645;28;20047;-91
2022/09/11 00:20:49;;;;;;;14.82;9.10;;;;;;;18.68;69.29;95052.13;5087117;28;20509;-91
2022/09/11 00:23:19;;;;;;;11.60;9.18;;;;;;;15.88;68.65;94606.09;5087306;28;20139;-91
2022/09/11 00:25:45;;;;;;;16.83;10.55;;;;;;;19.06;68.77;95118.38;5087296;28;20047;-91
2022/09/11 00:28:18;;;;;;;19.25;10.45;;;;;;;18.21;69.31;95008.47;5087715;28;20035;-91
2022/09/11 00:30:45;;;;;;;15.77;10.30;;;;;;;18.19;70.42;95023.34;5087082;28;20051;-91
2022/09/11 00:33:12;;;;;;;17.08;10.20;;;;;;;18.48;69.88;95077.00;5087491;28;20509;-91
2022/09/11 00:35:39;;;;;;;15.18;10.73;;;;;;;18.19;70.30;95029.50;5088138;28;20036;-91
2022/09/11 00:38:07;;;;;;;17.73;10.20;;;;;;;18.63;70.13;95086.41;5086878;28;20035;-91
2022/09/11 00:40:33;;;;;;;17.55;10.52;;;;;;;18.12;70.00;95008.53;5086793;28;20564;-91
2022/09/11 00:42:59;;;;;;;13.13;9.93;;;;;;;16.71;70.22;94793.75;5087215;28;20079;-91
2022/09/11 00:45:26;;;;;;;15.88;9.55;;;;;;;18.16;70.43;95032.81;5086685;28;20043;-91
2022/09/11 00:47:57;;;;;;;18.15;10.23;;;;;;;18.78;70.66;95120.75;5105025;28;20035;-91
2022/09/11 00:50:25;;;;;;;16.13;10.03;;;;;;;16.95;70.76;94836.84;5086771;28;20054;-91
2022/09/11 00:53:06;;;;;;;15.77;10.20;;;;;;;16.81;70.47;94812.94;5087962;28;20043;-91
2022/09/11 00:55:36;;;;;;;12.57;8.70;;;;;;;18.67;71.13;95119.59;5088530;28;20646;-91
2022/09/11 00:58:09;;;;;;;15.25;9.07;;;;;;;18.74;71.18;95120.63;5091228;28;20047;-91
2022/09/11 01:00:35;;;;;;;14.20;9.57;;;;;;;16.78;70.60;94802.13;5086412;28;20058;-91
2022/09/11 01:03:02;;;;;;;13.90;8.60;;;;;;;18.75;70.83;95122.22;5075928;28;20048;-91
2022/09/11 01:05:33;;;;;;;12.82;9.05;;;;;;;15.29;70.55;94587.22;5083934;28;20055;-91
2022/09/11 01:08:02;;;;;;;13.18;8.70;;;;;;;15.80;71.45;94703.94;5086611;28;20527;-91
2022/09/11 01:10:58;;;;;;;15.38;8.38;;;;;;;16.57;72.27;94842.13;5085836;28;20043;-91
2022/09/11 01:13:35;;;;;;;10.95;8.77;;;;;;;17.68;72.61;95015.22;5074826;28;20043;-91
2022/09/11 01:16:07;;;;;;;10.20;7.80;;;;;;;18.31;72.83;95114.72;5104919;28;20044;-91
2022/09/11 01:18:40;;;;;;;12.30;7.97;;;;;;;18.39;72.36;95114.63;5104114;28;20043;-91
2022/09/11 01:21:11;;;;;;;16.00;8.82;;;;;;;18.30;72.90;95119.28;5085595;28;20111;-91
2022/09/11 01:23:53;;;;;;;10.02;8.45;;;;;;;18.22;72.99;95125.47;5085617;28;20097;-90
2022/09/11 01:26:54;;;;;;;16.75;9.13;;;;;;;18.12;73.25;95113.19;5085857;28;20572;-91
2022/09/11 01:29:41;;;;;;;12.60;8.55;;;;;;;18.22;73.60;95122.00;5039251;28;20437;-91
2022/09/11 01:32:20;;;;;;;15.55;8.50;;;;;;;17.17;73.47;94962.53;5104965;28;20059;-91
2022/09/11 01:34:56;;;;;;;9.63;8.23;;;;;;;17.19;73.29;94973.72;5086973;28;20848;-91
2022/09/11 01:37:31;;;;;;;10.10;8.32;;;;;;;17.48;73.40;95021.25;5086551;28;20040;-91
2022/09/11 01:40:09;;;;;;;11.80;8.52;;;;;;;17.62;72.68;95007.69;5104524;28;20051;-91
2022/09/11 01:42:39;;;;;;;12.30;8.10;;;;;;;17.44;72.94;94987.34;5086078;28;20583;-91
2022/09/11 01:45:06;;;;;;;12.68;8.18;;;;;;;18.31;72.89;95103.97;5087136;28;20052;-91
2022/09/11 01:47:34;;;;;;;15.82;8.68;;;;;;;18.39;72.83;95111.16;5086302;28;20150;-91
2022/09/11 01:50:04;;;;;;;18.02;8.68;;;;;;;17.81;72.55;94996.53;5086262;28;20495;-91
2022/09/11 01:52:41;;;;;;;10.93;7.68;;;;;;;18.33;71.42;95054.19;5104439;28;20060;-91
2022/09/11 01:55:18;;;;;;;13.30;8.75;;;;;;;18.37;71.53;95047.06;5087562;28;20669;-91
2022/09/11 01:57:56;;;;;;;11.82;8.30;;;;;;;18.83;70.72;95099.09;5087396;28;20055;-91
2022/09/11 02:00:22;;;;;;;11.40;7.53;;;;;;;17.47;70.78;94879.50;5087247;28;20616;-90
2022/09/11 02:02:52;;;;;;;13.73;7.88;;;;;;;18.85;70.40;95083.41;5087357;28;20093;-90
2022/09/11 02:05:26;;;;;;;11.35;8.15;;;;;;;18.95;70.30;95091.09;5088157;28;20047;-90
2022/09/11 02:07:58;;;;;;;11.32;8.38;;;;;;;18.54;70.00;95027.34;5074624;28;20128;-90
2022/09/11 02:10:58;;;;;;;11.88;7.72;;;;;;;17.60;70.02;94891.88;5084252;28;20674;-90
2022/09/11 02:13:38;;;;;;;11.48;6.78;;;;;;;17.88;69.74;94933.22;5087481;28;20047;-90
2022/09/11 02:16:13;;;;;;;15.77;7.43;;;;;;;18.46;69.96;95031.66;5086129;28;20157;-90
2022/09/11 02:19:00;;;;;;;14.30;8.13;;;;;;;18.76;70.32;95086.19;5087562;28;20047;-90
2022/09/11 02:21:27;;;;;;;11.40;7.22;;;;;;;16.69;70.71;94796.78;5086445;28;20039;-91
2022/09/11 02:23:54;;;;;;;11.27;7.22;;;;;;;15.88;70.48;94664.94;5086166;28;20131;-91
2022/09/11 02:26:23;;;;;;;14.52;7.88;;;;;;;16.20;69.86;94688.44;5087164;28;20262;-90
2022/09/11 02:28:49;;;;;;;10.95;7.68;;;;;;;18.90;70.07;95061.75;5086161;28;20127;-91
2022/09/11 02:31:16;;;;;;;10.98;7.82;;;;;;;19.02;69.72;95082.50;5087833;28;20154;-90
2022/09/11 02:33:42;;;;;;;15.57;7.32;;;;;;;19.04;69.77;95091.03;5089845;28;20047;-91
2022/09/11 02:36:45;;;;;;;11.85;8.10;;;;;;;19.06;69.67;95080.75;5090186;28;20047;-91
2022/09/11 02:39:36;;;;;;;13.18;7.35;;;;;;;18.92;69.51;95039.91;5090536;28;20058;-91
2022/09/11 02:42:11;;;;;;;11.07;7.90;;;;;;;18.75;71.11;95089.19;5090692;28;20086;-91
2022/09/11 02:45:07;;;;;;;11.10;8.15;;;;;;;18.78;71.17;95083.16;5089603;28;20048;-91
2022/09/11 02:47:51;;;;;;;15.38;8.27;;;;;;;18.62;72.04;95087.53;5089548;28;20050;-90
2022/09/11 02:50:20;;;;;;;14.85;7.65;;;;;;;18.77;71.58;95082.34;5090480;28;20086;-90
2022/09/11 02:52:52;;;;;;;14.63;8.32;;;;;;;18.91;71.10;95078.66;5091804;28;20070;-90
2022/09/11 02:58:32;;;;;;;15.07;8.73;;;;;;;18.45;71.30;95005.16;5102976;28;20042;-91
2022/09/11 03:01:00;;;;;;;11.45;8.55;;;;;;;18.64;71.65;95058.44;5089502;28;20796;-91
2022/09/11 03:03:25;;;;;;;11.25;8.82;;;;;;;18.38;71.95;95024.50;5089569;28;20047;-90
2022/09/11 03:05:53;;;;;;;18.88;9.55;;;;;;;18.00;71.58;94973.53;5089207;28;20043;-90
2022/09/11 03:08:19;;;;;;;12.23;8.88;;;;;;;17.38;72.81;94900.19;5088940;28;20043;-90
2022/09/11 03:10:45;;;;;;;19.08;8.73;;;;;;;16.94;73.31;94865.50;5089716;28;20051;-90
2022/09/11 03:13:13;;;;;;;16.38;9.43;;;;;;;15.67;74.73;94711.06;5089424;28;20053;-90
2022/09/11 03:15:39;;;;;;;16.90;9.82;;;;;;;17.76;73.58;94977.97;5088512;28;20046;-90
2022/09/11 03:18:04;;;;;;;13.02;9.50;;;;;;;17.63;74.27;94999.28;5090301;28;20143;-90
2022/09/11 03:20:30;;;;;;;15.15;9.98;;;;;;;17.95;74.19;95038.13;5088664;28;20570;-91
2022/09/11 03:22:57;;;;;;;14.27;10.15;;;;;;;18.22;74.95;95100.53;5089566;28;20154;-90
2022/09/11 03:25:27;;;;;;;13.35;9.85;;;;;;;18.21;74.84;95099.75;5072430;28;20099;-90
2022/09/11 03:27:53;;;;;;;17.38;10.68;;;;;;;18.24;74.74;95104.44;5088926;28;20046;-90
2022/09/11 03:30:19;;;;;;;19.30;11.13;;;;;;;18.22;74.82;95112.06;5089344;28;20049;-90
2022/09/11 03:32:45;;;;;;;17.20;10.82;;;;;;;18.07;75.17;95104.53;5088463;28;20047;-90
2022/09/11 03:35:11;;;;;;;13.95;10.85;;;;;;;18.11;75.31;95113.50;5088298;28;20491;-90
2022/09/11 03:37:36;;;;;;;15.88;10.00;;;;;;;17.95;74.59;95051.53;5089208;28;20863;-90
2022/09/11 03:40:03;;;;;;;15.73;11.00;;;;;;;18.39;74.12;95105.78;5071742;28;20481;-90
2022/09/11 03:42:31;;;;;;;18.75;10.02;;;;;;;18.09;73.71;95043.25;5087205;28;20068;-90
2022/09/11 03:44:57;;;;;;;17.42;10.13;;;;;;;16.86;73.07;94852.19;5087959;28;20437;-91
2022/09/11 03:47:22;;;;;;;14.57;10.85;;;;;;;18.00;73.46;95051.34;5088089;28;20046;-91
2022/09/11 03:49:48;;;;;;;19.85;11.30;;;;;;;17.44;74.20;95006.91;5087862;28;20085;-90
2022/09/11 03:52:14;;;;;;;15.32;11.25;;;;;;;17.47;74.74;95021.59;5090206;28;20069;-90
2022/09/11 03:54:39;;;;;;;15.07;11.70;;;;;;;18.08;75.27;95124.88;5071771;28;20043;-90
2022/09/11 03:57:05;;;;;;;18.30;12.07;;;;;;;18.15;74.65;95129.78;5088908;28;20043;-90
2022/09/11 03:59:31;;;;;;;15.85;11.13;;;;;;;16.11;74.97;94830.25;5088271;28;20050;-90
2022/09/11 04:01:58;;;;;;;19.10;11.43;;;;;;;17.93;75.65;95120.03;5088825;28;20047;-90
2022/09/11 04:04:24;;;;;;;23.73;13.15;;;;;;;18.15;75.13;95125.19;5088511;28;20063;-90
2022/09/11 04:06:50;;;;;;;20.25;11.18;;;;;;;18.29;74.44;95133.03;5088510;28;20480;-90
2022/09/11 04:09:16;;;;;;;13.95;11.38;;;;;;;18.01;74.17;95077.09;5072416;28;20047;-90
2022/09/11 04:11:42;;;;;;;22.42;12.02;;;;;;;17.94;73.92;95066.06;5088514;28;20086;-91
2022/09/11 04:14:08;;;;;;;18.63;11.65;;;;;;;18.10;73.86;95085.09;5089153;28;20047;-90
2022/09/11 04:16:34;;;;;;;16.85;11.57;;;;;;;18.09;73.34;95080.84;5088611;28;20040;-91
2022/09/11 04:19:00;;;;;;;16.58;10.52;;;;;;;18.09;73.88;95095.03;5071814;28;20051;-90
2022/09/11 04:21:27;;;;;;;21.33;10.63;;;;;;;18.34;73.77;95122.88;5089283;28;20097;-90
2022/09/11 04:23:55;;;;;;;19.52;11.75;;;;;;;17.92;73.81;95064.84;5090821;28;20070;-91
2022/09/11 04:26:23;;;;;;;14.93;10.43;;;;;;;18.27;73.99;95127.97;5091114;28;20544;-91
2022/09/11 04:28:49;;;;;;;21.35;11.68;;;;;;;18.47;73.53;95126.44;5095704;28;20044;-90
2022/09/11 04:31:16;;;;;;;23.48;11.18;;;;;;;16.50;72.75;94796.31;5104973;28;20047;-90
2022/09/11 04:33:43;;;;;;;17.80;10.52;;;;;;;17.43;72.94;94938.31;5106135;28;20043;-91
2022/09/11 04:36:11;;;;;;;18.35;11.10;;;;;;;18.63;72.92;95132.06;5098309;28;20039;-90
2022/09/11 04:38:42;;;;;;;21.67;10.60;;;;;;;18.50;72.82;95117.75;5076552;28;20089;-90
2022/09/11 04:41:08;;;;;;;15.93;10.00;;;;;;;17.72;72.79;95005.41;5091349;28;20043;-90
2022/09/11 04:43:35;;;;;;;17.00;10.00;;;;;;;17.78;72.73;95006.00;5090952;28;20412;-90
2022/09/11 04:46:05;;;;;;;18.42;9.57;;;;;;;18.35;71.97;95088.78;5088703;28;20054;-90
2022/09/11 04:48:31;;;;;;;21.00;9.95;;;;;;;18.27;72.77;95101.13;5087663;28;20858;-90
2022/09/11 04:51:07;;;;;;;17.42;10.48;;;;;;;18.61;72.27;95131.63;5092079;28;20047;-91
2022/09/11 04:53:36;;;;;;;17.25;10.30;;;;;;;18.34;71.70;95084.50;5092232;28;20069;-90
2022/09/11 04:56:04;;;;;;;13.45;9.75;;;;;;;16.41;72.31;94823.13;5087498;28;20039;-90
2022/09/11 04:58:30;;;;;;;18.23;9.93;;;;;;;18.21;73.46;95131.16;5086835;28;20426;-90
2022/09/11 05:00:56;;;;;;;24.23;12.15;;;;;;;17.92;74.48;95142.63;5086837;28;20047;-90
2022/09/11 05:03:21;;;;;;;17.58;12.38;;;;;;;17.03;74.71;95023.56;5105369;28;20751;-90
2022/09/11 05:05:47;;;;;;;22.20;12.85;;;;;;;16.25;75.41;94930.97;5086870;28;20103;-90
2022/09/11 05:08:12;;;;;;;19.25;13.45;;;;;;;16.24;75.39;94918.69;5087675;28;20047;-90
2022/09/11 05:10:38;;;;;;;21.08;14.15;;;;;;;17.47;75.27;95100.09;5087014;28;20478;-90
2022/09/11 05:13:03;;;;;;;23.17;14.20;;;;;;;15.89;75.34;94873.19;5088371;28;20035;-90
2022/09/11 05:15:30;;;;;;;22.35;13.35;;;;;;;14.91;75.89;94741.94;5087619;28;20429;-90
2022/09/11 05:17:56;;;;;;;17.23;14.85;;;;;;;16.55;76.82;95005.75;5087373;28;20059;-90
2022/09/11 05:20:22;;;;;;;21.38;14.73;;;;;;;15.00;76.22;94753.44;5087541;28;20146;-90
2022/09/11 05:22:49;;;;;;;20.92;14.45;;;;;;;17.00;76.80;95077.00;5086162;28;20149;-90
2022/09/11 05:25:17;;;;;;;20.58;13.80;;;;;;;17.35;76.89;95124.09;5105491;28;20047;-90
2022/09/11 05:27:43;;;;;;;25.80;14.88;;;;;;;17.12;77.56;95110.06;5104923;28;20074;-90
2022/09/11 05:30:09;;;;;;;18.83;14.20;;;;;;;17.27;77.58;95136.41;5085702;28;20588;-91
2022/09/11 05:32:35;;;;;;;21.13;15.32;;;;;;;17.21;77.72;95137.66;5085293;28;20154;-90
2022/09/11 05:35:00;;;;;;;24.20;15.82;;;;;;;17.01;77.48;95090.06;5087399;28;20151;-91
2022/09/11 05:37:26;;;;;;;20.27;15.45;;;;;;;16.56;77.69;95033.28;5086365;28;20351;-91
2022/09/11 05:39:51;;;;;;;23.60;15.43;;;;;;;17.24;77.82;95126.28;5086826;28;20035;-90
2022/09/11 05:42:17;;;;;;;24.27;16.65;;;;;;;17.23;77.97;95130.09;5070116;28;20040;-90
2022/09/11 05:44:42;;;;;;;26.08;15.20;;;;;;;16.58;77.82;95007.00;5090752;28;20047;-91
2022/09/11 05:47:08;;;;;;;22.20;15.95;;;;;;;17.48;77.64;95125.00;5087233;28;20043;-90
2022/09/11 05:49:35;;;;;;;26.00;16.52;;;;;;;17.64;76.98;95128.81;5086650;28;20086;-90
2022/09/11 05:52:01;;;;;;;27.02;15.93;;;;;;;16.61;77.10;94990.34;5086088;28;20500;-90
2022/09/11 05:54:27;;;;;;;23.77;15.07;;;;;;;17.48;77.11;95114.28;5087589;28;20131;-91
2022/09/11 05:56:53;;;;;;;24.00;16.17;;;;;;;15.53;77.04;94801.31;5086990;28;20040;-90
2022/09/11 05:59:19;;;;;;;18.00;15.57;;;;;;;17.72;76.49;95128.78;5087011;28;20036;-90
2022/09/11 06:01:46;;;;;;;21.83;15.70;;;;;;;17.43;76.11;95080.41;5082359;28;20044;-90
2022/09/11 06:04:12;;;;;;;21.70;15.85;;;;;;;17.40;76.42;95102.47;5072264;28;20065;-90
2022/09/11 06:06:38;;;;;;;23.08;16.95;;;;;;;17.41;76.74;95085.28;5089323;28;20198;-90
2022/09/11 06:09:07;;;;;;;22.98;16.88;;;;;;;17.68;76.36;95141.28;5089472;28;20146;-90
2022/09/11 06:11:32;;;;;;;22.30;17.40;;;;;;;17.73;76.34;95132.25;5091059;28;20797;-91
2022/09/11 06:13:59;;;;;;;26.23;17.13;;;;;;;17.68;75.94;95141.28;5078982;28;20150;-90
2022/09/11 06:16:26;;;;;;;22.33;16.77;;;;;;;15.86;75.83;94848.97;5070618;28;20044;-90
2022/09/11 06:18:53;;;;;;;27.00;16.52;;;;;;;15.49;75.91;94791.50;5070408;28;20046;-90
2022/09/11 06:21:22;;;;;;;23.55;16.02;;;;;;;17.55;76.79;95149.44;5069734;28;20043;-90
2022/09/11 06:23:51;;;;;;;28.98;17.42;;;;;;;17.47;76.94;95129.59;5070084;28;20032;-90
2022/09/11 06:26:22;;;;;;;30.50;17.70;;;;;;;17.30;76.98;95100.13;5070236;28;20068;-90
2022/09/11 06:28:49;;;;;;;26.07;18.73;;;;;;;17.20;76.33;95070.97;5070338;28;20071;-91
2022/09/11 06:31:18;;;;;;;22.15;17.98;;;;;;;17.38;76.50;95085.94;5070468;28;20309;-90
2022/09/11 06:33:44;;;;;;;25.65;18.42;;;;;;;16.02;76.14;94893.66;5070338;28;20069;-91
2022/09/11 06:36:13;;;;;;;24.90;17.50;;;;;;;14.09;75.73;94595.88;5069596;28;20530;-90
2022/09/11 06:38:39;;;;;;;21.70;17.13;;;;;;;17.68;76.08;95162.72;5069901;28;20059;-90
2022/09/11 06:41:12;;;;;;;27.02;18.73;;;;;;;14.15;75.58;94610.63;5070410;28;20040;-90
2022/09/11 06:43:38;;;;;;;23.40;18.23;;;;;;;17.87;76.00;95151.63;5070270;28;20071;-90
2022/09/11 06:46:06;;;;;;;28.23;18.40;;;;;;;17.74;75.13;95121.22;5089994;28;20051;-90
2022/09/11 06:48:33;;;;;;;20.08;16.05;;;;;;;18.05;74.70;95155.06;5069857;28;20056;-90
2022/09/11 06:51:04;;;;;;;29.98;16.90;;;;;;;16.59;74.16;94947.00;5066104;28;20051;-90
2022/09/11 06:53:34;;;;;;;21.33;16.35;;;;;;;16.49;74.12;94905.28;5068202;28;20080;-90
2022/09/11 06:56:01;;;;;;;26.63;17.55;;;;;;;18.28;73.77;95160.97;5067011;28;20041;-90
2022/09/11 06:58:29;;;;;;;20.63;16.70;;;;;;;17.70;72.78;95077.34;5066667;28;20125;-90
2022/09/11 07:01:06;;;;;;;20.23;14.50;;;;;;;18.26;72.92;95163.19;5066887;28;20489;-90
2022/09/11 07:03:32;;;;;;;18.50;14.25;;;;;;;18.34;71.87;95157.00;5066068;28;20044;-90
2022/09/11 07:05:58;;;;;;;23.92;15.45;;;;;;;16.54;71.15;94861.53;5066039;28;20050;-91
2022/09/11 07:08:27;;;;;;;23.75;14.40;;;;;;;16.98;71.49;94935.31;5066527;28;20641;-91
2022/09/11 07:10:54;;;;;;;19.88;15.05;;;;;;;17.97;70.98;95094.94;5066748;28;20044;-90
2022/09/11 07:13:23;;;;;;;17.92;12.43;;;;;;;18.24;69.68;95107.13;5066016;28;20111;-90
2022/09/11 07:15:48;;;;;;;18.42;12.27;;;;;;;17.79;68.68;95061.22;5067319;28;20054;-90
2022/09/11 07:18:17;;;;;;;18.95;12.13;;;;;;;18.46;68.52;95114.16;5065474;28;20107;-91
2022/09/11 07:20:42;;;;;;;13.68;11.30;;;;;;;17.48;67.84;94951.53;5065215;28;20051;-90
2022/09/11 07:23:09;;;;;;;16.08;11.23;;;;;;;18.88;67.64;95156.09;5049308;28;20048;-90
2022/09/11 07:25:39;;;;;;;14.40;10.07;;;;;;;18.86;66.17;95152.16;5066395;28;20098;-90
2022/09/11 07:28:06;;;;;;;14.30;10.25;;;;;;;18.73;66.07;95116.38;5066983;28;20044;-90
2022/09/11 07:30:32;;;;;;;15.18;11.05;;;;;;;18.85;66.16;95135.25;5065834;28;20044;-90
2022/09/11 07:32:58;;;;;;;15.27;11.07;;;;;;;19.16;66.33;95160.97;5049187;28;20130;-90
2022/09/11 07:35:23;;;;;;;14.68;11.93;;;;;;;18.59;65.83;95055.97;5064630;28;20133;-90
2022/09/11 07:37:49;;;;;;;11.88;10.32;;;;;;;19.03;64.50;95122.50;5065916;28;20068;-91
2022/09/11 07:40:16;;;;;;;11.98;10.70;;;;;;;17.45;63.20;94865.63;5065978;28;20052;-90
2022/09/11 07:42:42;;;;;;;11.23;9.88;;;;;;;19.25;62.69;95138.28;5065414;28;20737;-90
2022/09/11 07:45:09;;;;;;;12.10;9.60;;;;;;;19.00;63.55;95100.84;5067556;28;20052;-90
2022/09/11 07:47:34;;;;;;;13.45;10.43;;;;;;;17.74;63.22;94885.19;5077248;28;20048;-91
2022/09/11 07:50:01;;;;;;;12.43;11.13;;;;;;;17.88;63.16;94897.56;5067431;28;20454;-90
2022/09/11 07:52:30;;;;;;;14.50;10.93;;;;;;;18.66;63.29;95005.97;5067892;28;20070;-90
2022/09/11 07:54:56;;;;;;;15.20;10.30;;;;;;;19.45;62.65;95142.09;5066062;28;20040;-90
2022/09/11 07:57:23;;;;;;;13.25;9.93;;;;;;;17.67;63.29;94870.72;5065456;28;20040;-91
2022/09/11 07:59:50;;;;;;;15.10;11.25;;;;;;;17.90;62.98;94873.88;5065409;28;20076;-91
2022/09/11 08:02:16;;;;;;;16.38;11.77;;;;;;;18.15;62.41;94905.13;5048876;28;20086;-91
2022/09/11 08:04:42;;;;;;;19.30;12.70;;;;;;;18.01;63.08;94872.38;5064535;28;20044;-91
2022/09/11 08:07:08;;;;;;;16.10;12.40;;;;;;;17.34;62.53;94756.09;5064038;28;20740;-91
2022/09/11 08:09:34;;;;;;;19.38;13.27;;;;;;;18.03;63.04;94859.41;5064799;28;20059;-91
2022/09/11 08:12:01;;;;;;;17.13;13.00;;;;;;;19.50;63.92;95128.44;5065599;28;20894;-90
2022/09/11 08:14:31;;;;;;;15.35;12.80;;;;;;;19.46;63.96;95114.06;5047990;28;20052;-91
2022/09/11 08:16:58;;;;;;;15.60;12.20;;;;;;;19.65;63.40;95125.16;5048967;28;20832;-91
2022/09/11 08:19:24;;;;;;;26.27;14.05;;;;;;;19.83;63.40;95127.66;5032606;28;20075;-91
2022/09/11 08:21:50;;;;;;;18.08;12.70;;;;;;;15.76;61.76;94505.19;5064402;28;20102;-91
2022/09/11 08:24:16;;;;;;;14.95;11.93;;;;;;;19.69;60.70;95073.34;5065224;28;20285;-90
2022/09/11 08:26:42;;;;;;;18.00;12.30;;;;;;;18.84;60.69;94950.97;5064907;28;20123;-90
2022/09/11 08:29:08;;;;;;;15.20;12.35;;;;;;;19.60;61.60;95055.41;5064975;28;20201;-90
2022/09/11 08:31:34;;;;;;;15.57;12.85;;;;;;;20.07;61.81;95116.94;5063560;28;20135;-90
2022/09/11 08:34:00;;;;;;;13.77;12.02;;;;;;;18.48;60.99;94854.91;5064665;28;20037;-90
2022/09/11 08:36:27;;;;;;;13.93;11.45;;;;;;;19.86;59.72;95062.41;5065123;28;20048;-90
2022/09/11 08:38:53;;;;;;;14.85;11.75;;;;;;;19.34;60.06;94952.69;5065302;28;20048;-90
2022/09/11 08:41:22;;;;;;;15.57;12.75;;;;;;;20.45;59.61;95122.03;5068612;28;20158;-91
2022/09/11 08:44:00;;;;;;;13.85;12.40;;;;;;;20.45;59.85;95124.72;5064734;28;20544;-90
2022/09/11 08:46:32;;;;;;;16.60;12.00;;;;;;;20.16;60.22;95084.50;5064704;28;20040;-90
2022/09/11 08:49:04;;;;;;;17.58;12.38;;;;;;;20.46;60.84;95118.22;5064418;28;20120;-90
2022/09/11 08:51:30;;;;;;;15.60;12.88;;;;;;;20.47;58.92;95114.41;5064835;28;20048;-91
2022/09/11 08:53:58;;;;;;;17.38;12.00;;;;;;;20.50;58.53;95102.97;5048418;28;20045;-91
2022/09/11 08:56:28;;;;;;;20.13;12.30;;;;;;;19.82;58.34;94986.94;5063909;28;20669;-91
2022/09/11 08:59:17;;;;;;;16.75;11.65;;;;;;;19.63;57.79;94965.97;5063566;28;20047;-91
2022/09/11 09:01:58;;;;;;;15.73;13.20;;;;;;;20.05;58.33;94998.06;5064076;28;20044;-91
2022/09/11 09:04:45;;;;;;;14.13;12.20;;;;;;;18.44;58.18;94727.03;5063367;28;20130;-91
2022/09/11 09:07:26;;;;;;;16.65;12.48;;;;;;;19.87;57.46;94914.06;5064067;28;20048;-91
2022/09/11 09:10:12;;;;;;;13.80;11.67;;;;;;;20.95;56.76;95081.22;5064630;28;20041;-91
2022/09/11 09:13:07;;;;;;;13.63;11.60;;;;;;;20.86;56.70;95050.13;5063939;28;20052;-91
2022/09/11 09:16:17;;;;;;;18.15;13.25;;;;;;;21.22;57.21;95070.81;5073509;28;20067;-91
2022/09/11 09:18:49;;;;;;;15.82;11.75;;;;;;;20.59;56.87;94990.47;4996566;28;20042;-91
2022/09/11 09:21:23;;;;;;;12.57;10.55;;;;;;;21.15;54.34;95069.47;5086081;28;20068;-91
2022/09/11 09:23:57;;;;;;;13.60;10.98;;;;;;;21.03;54.25;95047.94;5099539;28;20645;-92
2022/09/11 09:26:33;;;;;;;13.65;10.55;;;;;;;20.74;53.78;94999.75;5083486;28;20543;-91
2022/09/11 09:29:05;;;;;;;11.88;10.48;;;;;;;20.64;53.26;94986.75;5082878;28;20838;-91
2022/09/11 09:31:32;;;;;;;12.95;10.55;;;;;;;20.52;53.86;94976.78;5083140;28;20054;-91
2022/09/11 09:34:26;;;;;;;14.32;12.07;;;;;;;20.89;52.85;95034.06;5085653;28;20492;-91
2022/09/11 09:37:06;;;;;;;12.60;9.65;;;;;;;20.83;51.53;95027.31;5083476;28;20105;-91
2022/09/11 09:39:35;;;;;;;9.90;8.65;;;;;;;21.21;50.48;95061.94;5085886;28;20040;-91
2022/09/11 09:42:38;;;;;;;11.35;9.32;;;;;;;21.23;50.01;95054.28;5083755;28;20039;-91
2022/09/11 09:45:38;;;;;;;10.68;8.18;;;;;;;21.25;50.60;95059.34;5060034;28;20127;-91
2022/09/11 09:48:05;;;;;;;12.38;8.88;;;;;;;20.35;49.93;94886.28;5083054;28;20997;-91
2022/09/11 09:50:36;;;;;;;11.35;10.18;;;;;;;20.76;50.36;94941.69;5085039;28;20055;-91
2022/09/11 09:53:14;;;;;;;11.10;7.97;;;;;;;21.08;49.79;94969.50;5083945;28;20048;-91
2022/09/11 09:55:42;;;;;;;12.02;9.25;;;;;;;20.22;49.39;94785.06;5083766;28;20036;-91
2022/09/11 09:58:08;;;;;;;9.77;7.93;;;;;;;20.92;46.08;94784.59;5082786;28;20059;-91
2022/09/11 10:00:37;;;;;;;8.43;7.55;;;;;;;21.65;44.62;94819.88;5083722;28;20044;-90
2022/09/11 10:03:22;;;;;;;11.30;8.07;;;;;;;23.81;43.56;95032.38;5083133;28;20603;-91
2022/09/11 10:05:52;;;;;;;12.35;8.30;;;;;;;24.82;42.09;95038.97;5082755;28;20040;-91
2022/09/11 10:08:36;;;;;;;7.95;6.72;;;;;;;24.63;41.60;95035.63;5082582;28;20151;-91
2022/09/11 10:11:07;;;;;;;14.93;7.65;;;;;;;25.47;40.24;95024.28;5081874;28;20052;-91
2022/09/11 10:13:40;;;;;;;8.75;7.60;;;;;;;26.51;39.10;95025.63;5083022;28;20076;-91
2022/09/11 10:16:19;;;;;;;9.75;6.82;;;;;;;26.60;37.31;95006.28;5084122;28;20888;-91
2022/09/11 10:18:46;;;;;;;7.13;6.43;;;;;;;26.80;36.83;94964.00;5083548;28;20051;-91
2022/09/11 10:21:11;;;;;;;13.75;7.15;;;;;;;27.15;36.22;95019.78;5083780;28;20048;-91
2022/09/11 10:23:53;;;;;;;10.48;7.75;;;;;;;27.42;36.56;95015.59;5083874;28;20051;-91
2022/09/11 10:26:28;;;;;;;7.05;6.32;;;;;;;27.35;35.42;94982.13;5083641;28;20066;-91
2022/09/11 10:28:58;;;;;;;10.73;6.70;;;;;;;26.02;36.00;94786.09;5083172;28;20565;-91
2022/09/11 10:31:26;;;;;;;8.98;6.90;;;;;;;27.47;36.34;95012.50;5084596;28;20078;-91
2022/09/11 10:33:59;;;;;;;7.45;6.35;;;;;;;27.59;35.50;95016.84;5067961;28;20054;-91
2022/09/11 10:36:27;;;;;;;9.18;6.75;;;;;;;26.09;35.68;94735.28;5087259;28;20797;-91
2022/09/11 10:38:59;;;;;;;10.73;6.93;;;;;;;27.55;35.35;94980.63;5083016;28;20501;-91
2022/09/11 10:41:33;;;;;;;12.45;7.85;;;;;;;27.06;36.73;94989.41;5084236;28;20147;-91
2022/09/11 10:44:05;;;;;;;7.88;6.93;;;;;;;27.03;36.62;94957.50;5084666;28;20140;-91
2022/09/11 10:46:39;;;;;;;7.05;5.75;;;;;;;27.05;36.09;94927.97;5084009;28;20067;-91
2022/09/11 10:49:04;;;;;;;8.63;6.18;;;;;;;27.44;36.21;95032.34;5096302;28;20044;-91
2022/09/11 10:52:21;;;;;;;7.10;6.38;;;;;;;26.08;37.72;94942.22;5073992;28;20052;-91
2022/09/11 10:55:00;;;;;;;6.35;5.65;;;;;;;26.56;37.67;95013.59;5045479;28;20047;-91
2022/09/11 10:57:51;;;;;;;8.18;6.53;;;;;;;25.17;38.40;94837.09;5105227;28;20848;-91
2022/09/11 11:00:22;;;;;;;6.93;5.93;;;;;;;25.67;38.00;94860.81;5090375;28;20055;-91
2022/09/11 11:02:49;;;;;;;;;;;;;;;26.61;37.40;95005.13;5090294;28;20086;-91
2022/09/11 11:05:20;;;;;;;6.82;5.95;;;;;;;26.47;37.18;94950.66;5108028;28;19923;-91
2022/09/11 11:07:49;;;;;;;9.73;6.90;;;;;;;26.98;37.25;95009.59;5093581;28;20047;-91
2022/09/11 11:11:01;;;;;;;11.10;7.03;;;;;;;26.32;37.23;94886.47;5105103;28;20586;-91
2022/09/11 11:14:14;;;;;;;9.32;6.68;;;;;;;24.82;37.13;94658.50;5055576;28;20088;-91
2022/09/11 11:17:04;;;;;;;7.93;6.65;;;;;;;27.31;36.77;95000.41;5010301;28;20764;-91
2022/09/11 11:19:52;;;;;;;8.43;6.68;;;;;;;26.75;36.33;94903.75;5088403;28;20124;-91
2022/09/11 11:22:25;;;;;;;8.20;6.10;;;;;;;26.96;35.75;94884.81;5084446;28;20397;-91
2022/09/11 11:25:10;;;;;;;10.38;6.78;;;;;;;27.51;36.13;94977.88;5077619;28;20158;-91
2022/09/11 11:27:59;;;;;;;9.95;7.15;;;;;;;27.89;35.65;94981.84;5083591;28;20044;-91
2022/09/11 11:31:03;;;;;;;7.47;5.53;;;;;;;27.60;35.22;94972.09;5097026;28;20047;-91
2022/09/11 11:33:48;;;;;;;6.30;5.70;;;;;;;27.39;35.27;94921.03;5056172;28;20040;-91
2022/09/11 11:36:33;;;;;;;9.15;7.15;;;;;;;28.06;35.45;94955.78;5078354;28;20032;-91
2022/09/11 11:39:27;;;;;;;8.68;6.78;;;;;;;27.55;34.61;94913.31;5089145;28;20081;-91
2022/09/11 11:42:26;;;;;;;8.73;5.88;;;;;;;27.60;34.98;94953.81;5047340;28;20711;-91
2022/09/11 11:45:26;;;;;;;7.95;5.80;;;;;;;27.07;35.51;94923.72;5082588;28;20495;-91